»·PEaware :: N3891R KSBD-KBUR

N3891R :: KSBD-KBUR

FLIGHT INFORMATION

Flight Status: Arrived
Operator: Privately registered:
United States
More flights under this callsign
Pilot: Markus B. (22479)
Aircraft: BEECH AIRCRAFT BARON
(BE58)
More flights by this aircraft type
Origin: KSBD San Bernardino Intl
United States
Destination: KBUR Bob Hope-Burbank
United States
More flights between these airports :: More routes between these airports
Route: +PDZ V186 VNY
File this flight plan on PilotEdge
Remarks:
Altitude:
(Current/Filed)
6,000ft
Speed:
(Current/Filed)
170kts
Departed: 26-May-19 12:15 PM
Arrived: 26-May-19 12:50 PM
Distance/Time
Traveled:
56nm/0:35
Distance/Time
To Go:
Arrived

Flight Plot

Page will automatically refresh every two minutes.


Map Options




Map Legend


Flown Route
Filed Route
Departure Airport
Arrival Airport
Navaid (VOR, NDB)
Fix

Horizontal Profiles

Position Reports

Time Latitude Longitude Heading Altitude Ground
Speed
26-May-19 11:55 34.104049 -117.245924 0 1161ft 0kts
26-May-19 11:56 34.104049 -117.245924 0 1161ft 0kts
26-May-19 11:57 34.104049 -117.245924 0 1161ft 0kts
26-May-19 11:58 34.104049 -117.245924 0 1161ft 0kts
26-May-19 11:59 34.104049 -117.245924 0 1161ft 0kts
26-May-19 12:00 34.104049 -117.245924 0 1161ft 0kts
26-May-19 12:01 34.104049 -117.245924 0 1161ft 0kts
26-May-19 12:02 34.104049 -117.245924 0 1161ft 0kts
26-May-19 12:03 34.104049 -117.245924 0 1161ft 0kts
26-May-19 12:04 34.104049 -117.245924 0 1161ft 0kts
26-May-19 12:05 34.103842 -117.244639 105 1161ft 13kts
26-May-19 12:06 34.101942 -117.236413 106 1161ft 33kts
26-May-19 12:07 34.099856 -117.227537 91 1161ft 20kts
26-May-19 12:08 34.101338 -117.220086 125 1161ft 15kts
26-May-19 12:09 34.100920 -117.219795 165 1161ft 0kts
26-May-19 12:10 34.100920 -117.219795 165 1161ft 0kts
26-May-19 12:11 34.100920 -117.219795 165 1161ft 0kts
26-May-19 12:12 34.100920 -117.219795 165 1161ft 0kts
26-May-19 12:14 34.099779 -117.219769 224 1161ft 24kts
26-May-19 12:15 34.088051 -117.252134 228 1974ft 133kts
26-May-19 12:16 34.060830 -117.290257 233 3027ft 154kts
26-May-19 12:17 34.035543 -117.331899 234 4169ft 153kts
26-May-19 12:18 34.011415 -117.372676 235 5392ft 146kts
26-May-19 12:19 33.986829 -117.414425 235 6005ft 171kts
26-May-19 12:20 33.957894 -117.463550 235 5996ft 182kts
26-May-19 12:21 33.928446 -117.513435 235 5996ft 183kts
26-May-19 12:22 33.933202 -117.572104 289 5996ft 183kts
26-May-19 12:23 33.950866 -117.629869 291 5996ft 183kts
26-May-19 12:24 33.969055 -117.686846 291 5996ft 183kts
26-May-19 12:25 33.987304 -117.743841 291 5996ft 183kts
26-May-19 12:26 34.005623 -117.801126 291 5996ft 185kts
26-May-19 12:27 34.020299 -117.847464 291 5995ft 184kts
26-May-19 12:28 34.038626 -117.905063 291 5996ft 184kts
26-May-19 12:29 34.056925 -117.962592 291 5996ft 184kts
26-May-19 12:30 34.075138 -118.019958 291 5996ft 184kts
26-May-19 12:31 34.093536 -118.077994 291 5983ft 181kts
26-May-19 12:32 34.111445 -118.134594 291 6029ft 187kts
26-May-19 12:33 34.129794 -118.192728 291 5994ft 185kts
26-May-19 12:34 34.147942 -118.250326 291 5995ft 184kts
26-May-19 12:34 34.160883 -118.299202 273 5994ft 184kts
26-May-19 12:36 34.162085 -118.371638 271 5995ft 184kts
26-May-19 12:37 34.162996 -118.433807 271 5995ft 184kts
26-May-19 12:37 34.163789 -118.486160 271 5700ft 187kts
26-May-19 12:38 34.164670 -118.546054 271 4817ft 170kts
26-May-19 12:40 34.165520 -118.609318 271 4045ft 163kts
26-May-19 12:40 34.166211 -118.655219 271 4043ft 167kts
26-May-19 12:41 34.195077 -118.666077 58 4052ft 164kts
26-May-19 12:42 34.200970 -118.622779 105 3717ft 130kts
26-May-19 12:43 34.199075 -118.580212 73 3092ft 131kts
26-May-19 12:44 34.199999 -118.534954 94 3061ft 141kts
26-May-19 12:45 34.199460 -118.492323 92 3063ft 113kts
26-May-19 12:46 34.198913 -118.453815 91 2842ft 118kts
26-May-19 12:47 34.198763 -118.411984 94 1742ft 140kts
26-May-19 12:48 34.197921 -118.370418 89 808ft 93kts
26-May-19 12:49 34.196462 -118.357919 176 780ft 16kts

Navigation Log

Ident Type
Flight plan parsing failed, navigation log unavailable